Miscellaneous Local Product
Issued by NWS

Home | Current Version | Previous Version | Text Only | Print | Product List | Glossary On
Versions: 1 2 3 4 5 6 7 8 9 10 11 12 13 14 15 16 17 18 19 20 21 22 23 24 25 26 27 28 29 30 31 32 33 34 35 36 37 38 39 40 41 42 43 44 45 46 47 48 49 50
000
AXUS44 KLUB 160339
MISWTM
METAR KAD1 160335Z 24009KT M02/M11 A3018 RMK A01 SLP209 T10201118 RH 47%=
METAR KAHS 160335Z 28007KT 01/M06 A3016 RMK A01 SLP218 T00161060 RH 56%=
METAR KAI1 160335Z 29008KT M02/M10 A3017 RMK A01 SLP218 T10281106 RH 55%=
METAR KAM1 160335Z 30007KT M00/M18 A3017 RMK A01 SLP207 T10001185 RH 23%=
METAR KAM2 160335Z 33007KT 00/M17 A3016 RMK A01 SLP210 T00041175 RH 24%=
METAR KAM3 160335Z 29006KT 01/M19 A3017 RMK A01 SLP212 T00121190 RH 20%=
METAR KAMH 160335Z 29007KT M02/M08 A3018 RMK A01 SLP214 T10241083 RH 63%=
METAR KANS 160335Z 28004KT 02/M08 A3019 RMK A01 SLP220 T00211089 RH 43%=
METAR KAOS 160335Z 28008KT M02/M07 A3017 RMK A01 SLP218 T10241074 RH 68%=
METAR KARS 160335Z 30011KT 00/M09 A3016 RMK A01 SLP209 T00031094 RH 47%=
METAR KASR 160335Z 25006KT 02/M09 A3016 RMK A01 SLP219 T00241091 RH 42%=
METAR KASU 160335Z 29001KT 02/M06 A3019 RMK A01 SLP229 T00201066 RH 52%=
METAR KBI1 160335Z 36000KT 00/M07 A3020 RMK A01 SLP228 T00091077 RH 52%=
METAR KBO1 160335Z 26010KT M01/M11 A3020 RMK A01 SLP208 T10191118 RH 46%=
METAR KBO2 160335Z 31008KT 00/M17 A3015 RMK A01 SLP207 T00031173 RH 25%=
METAR KBR1 160335Z 31008KT M01/M10 A3018 RMK A01 SLP207 T10111108 RH 47%=
METAR KBWS 160335Z 27008KT 01/M05 A3018 RMK A01 SLP214 T00151055 RH 59%=
METAR KBY1 160335Z 36001KT M00/M14 A3019 RMK A01 SLP222 T10011143 RH 33%=
METAR KCA1 160335Z 31008KT M01/M14 A3008 RMK A01 SLP191 T10111147 RH 34%=
METAR KCA2 160335Z 30002KT 09/M07 A3018 RMK A01 SLP214 T00921077 RH 29%=
METAR KCES 160335Z 28007KT M01/M14 A3014 RMK A01 SLP208 T10171142 RH 37%=
METAR KCH1 160335Z 33005KT 01/M06 A3016 RMK A01 SLP221 T00151065 RH 54%=
METAR KCL1 160335Z 31007KT 00/M17 A3014 RMK A01 SLP201 T00041176 RH 24%=
METAR KCL2 160335Z 33005KT 04/M12 A3015 RMK A01 SLP211 T00461123 RH 28%=
METAR KCO1 160335Z 12006KT 01/M08 A3020 RMK A01 SLP229 T00121080 RH 49%=
METAR KCO2 160335Z 28003KT 02/M06 A3019 RMK A01 SLP226 T00211065 RH 52%=
METAR KCO3 160335Z 32009KT 07/M14 A3014 RMK A01 SLP208 T00741149 RH 18%=
METAR KCR1 160335Z 32008KT 06/M12 A3014 RMK A01 SLP210 T00691125 RH 23%=
METAR KCR2 160335Z 12004KT 00/M06 A3020 RMK A01 SLP231 T00041068 RH 57%=
METAR KCXS 160335Z 30011KT 05/M15 A3013 RMK A01 SLP206 T00511153 RH 20%=
METAR KDC1 160335Z 32005KT M01/M11 A3017 RMK A01 SLP206 T10101111 RH 46%=
METAR KDMS 160335Z 28008KT M00/M10 A3017 RMK A01 SLP207 T10051109 RH 44%=
METAR KDO1 160335Z 29008KT 02/M15 A3014 RMK A01 SLP207 T00241159 RH 24%=
METAR KDO2 160335Z 27010KT 04/M07 A3016 RMK A01 SLP218 T00431077 RH 40%=
METAR KDR1 160335Z 01002KT 03/M12 A3018 RMK A01 SLP196 T00301129 RH 29%=
METAR KDVS 160335Z 36000KT 02/M08 A3019 RMK A01 SLP215 T00241083 RH 44%=
METAR KEA1 160335Z 29006KT M03/M08 A3019 RMK A01 SLP221 T10321088 RH 65%=
METAR KEN1 160335Z 19003KT M03/M09 A3019 RMK A01 SLP221 T10311099 RH 59%=
METAR KES1 160335Z 31009KT 05/M15 A3015 RMK A01 SLP213 T00501151 RH 21%=
METAR KFAS 160335Z 26008KT M04/M11 A3018 RMK A01 SLP216 T10451118 RH 56%=
METAR KFL1 160335Z 04011KT 00/M12 A3022 RMK A01 SLP099 T00031120 RH 38%=
METAR KFLS 160335Z 32005KT M03/M11 A3016 RMK A01 SLP218 T10311117 RH 51%=
METAR KFR1 160335Z 32007KT 02/M17 A3017 RMK A01 SLP210 T00291176 RH 20%=
METAR KFVS 160335Z 27008KT 02/M06 A3016 RMK A01 SLP213 T00251063 RH 52%=
METAR KGDS 160335Z 29009KT 04/M12 A3013 RMK A01 SLP208 T00411128 RH 27%=
METAR KGGS 160335Z 29009KT 03/M07 A3017 RMK A01 SLP216 T00351073 RH 44%=
METAR KGHS 160335Z 27010KT 02/M05 A3017 RMK A01 SLP215 T00211057 RH 56%=
METAR KGO1 160335Z 30009KT 01/M17 A3015 RMK A01 SLP206 T00161175 RH 22%=
METAR KGU1 160335Z 31000KT 04/M12 A3017 RMK A01 SLP152 T00481129 RH 26%=
METAR KHA1 160335Z 29007KT 04/M08 A3014 RMK A01 SLP212 T00441080 RH 39%=
METAR KHA2 160335Z 31012KT 00/M12 A3017 RMK A01 SLP209 T00061126 RH 36%=
METAR KHA3 160335Z 28006KT 04/M09 A3015 RMK A01 SLP212 T00411097 RH 35%=
METAR KHE1 160335Z 30011KT 07/M12 A3013 RMK A01 SLP208 T00711120 RH 24%=
METAR KHES 160335Z 28010KT M03/M10 A3017 RMK A01 SLP211 T10391107 RH 58%=
METAR KHO1 160335Z 36001KT M00/M05 A3022 RMK A01 SLP225 T10001054 RH 67%=
METAR KHRS 160335Z 30010KT M01/M09 A3016 RMK A01 SLP209 T10131095 RH 54%=
METAR KJTS 160335Z 30005KT 00/M06 A3016 RMK A01 SLP218 T00071061 RH 59%=
METAR KJU1 160335Z 19005KT 00/M08 A3021 RMK A01 SLP237 T00011085 RH 51%=
METAR KKE1 160335Z 19004KT 01/M07 A3018 RMK A01 SLP202 T00121077 RH 50%=
METAR KKN1 160335Z 26006KT 04/M08 A3015 RMK A01 SLP215 T00461089 RH 36%=
METAR KLA1 160335Z 36000KT 00/M05 A3022 RMK A01 SLP239 T00041059 RH 62%=
METAR KLBW 160335Z 29006KT 01/M07 A3017 RMK A01 SLP214 T00121074 RH 52%=
METAR KLD1 160335Z 27008KT 00/M05 A3017 RMK A01 SLP212 T00021059 RH 63%=
METAR KLE1 160335Z 30008KT 03/M14 A3015 RMK A01 SLP213 T00311148 RH 25%=
METAR KLES 160335Z 27006KT 01/M04 A3019 RMK A01 SLP225 T00111046 RH 65%=
METAR KLO1 160335Z 22004KT M01/M07 A3021 RMK A01 SLP235 T10171071 RH 66%=
METAR KMC1 160335Z 23004KT 00/M08 A3019 RMK A01 SLP230 T00081089 RH 47%=
METAR KMC4 160335Z 23000KT 01/M04 A3022 RMK A01 SLP235 T00141047 RH 63%=
METAR KMC5 160335Z 31011KT 00/M17 A3014 RMK A01 SLP201 T00041175 RH 24%=
METAR KMC6 160335Z 33009KT M01/M08 A3017 RMK A01 SLP218 T10101087 RH 55%=
METAR KMCS 160335Z 30011KT M00/M16 A3010 RMK A01 SLP194 T10001165 RH 27%=
METAR KMD1 160335Z 25006KT 01/M08 A3019 RMK A01 SLP227 T00111084 RH 48%=
METAR KME1 160335Z 19002KT M02/M08 A3021 RMK A01 SLP237 T10251083 RH 64%=
METAR KMES 160335Z 30007KT 05/M17 A3015 RMK A01 SLP213 T00531175 RH 17%=
METAR KMNS 160335Z 27005KT M01/M08 A3018 RMK A01 SLP213 T10121083 RH 58%=
METAR KMUS 160335Z 25007KT M04/M08 A3019 RMK A01 SLP223 T10441081 RH 75%=
METAR KNH1 160335Z 28008KT 01/M04 A3019 RMK A01 SLP219 T00101044 RH 67%=
METAR KNOR 160335Z 31008KT 05/M15 A3015 RMK A01 SLP212 T00501157 RH 20%=
METAR KOD1 160335Z 30008KT 03/M11 A3013 RMK A01 SLP209 T00361116 RH 31%=
METAR KOES 160335Z 27007KT 00/M03 A3017 RMK A01 SLP218 T00031039 RH 73%=
METAR KONS 160335Z 30008KT M01/M08 A3016 RMK A01 SLP209 T10171088 RH 58%=
METAR KPA1 160335Z 32009KT 00/M17 A3015 RMK A01 SLP204 T00041170 RH 25%=
METAR KPAD 160335Z 29010KT 03/M12 A3015 RMK A01 SLP213 T00381122 RH 29%=
METAR KPD1 160335Z 31008KT 00/M16 A3017 RMK A01 SLP210 T00001161 RH 28%=
METAR KPD2 160335Z 33004KT 02/M15 A3017 RMK A01 SLP215 T00281158 RH 23%=
METAR KPD3 160335Z 31007KT 02/M15 A3016 RMK A01 SLP213 T00251159 RH 24%=
METAR KPD4 160335Z 29013KT M04/M15 A3012 RMK A01 SLP204 T10471153 RH 43%=
METAR KPFS 160335Z 30006KT 03/M09 A3015 RMK A01 SLP214 T00311097 RH 38%=
METAR KPG1 160335Z 03007KT 06/M10 A3020 RMK A01 SLP215 T00651101 RH 29%=
METAR KPMS 160335Z 29011KT M00/M16 A3012 RMK A01 SLP197 T10061167 RH 28%=
METAR KPPS 160335Z 23007KT 02/M05 A3018 RMK A01 SLP211 T00201059 RH 55%=
METAR KPT1 160335Z 27010KT 03/M05 A3016 RMK A01 SLP212 T00381055 RH 50%=
METAR KPVS 160335Z 28009KT 00/M11 A3016 RMK A01 SLP210 T00071113 RH 39%=
METAR KQU1 160335Z 29009KT 05/M19 A3017 RMK A01 SLP213 T00571197 RH 13%=
METAR KREE 160335Z 26008KT M01/M07 A3017 RMK A01 SLP214 T10101070 RH 63%=
METAR KRLS 160335Z 30009KT 01/M08 A3016 RMK A01 SLP212 T00111082 RH 49%=
METAR KRO1 160335Z 26007KT 01/M06 A3016 RMK A01 SLP217 T00151067 RH 54%=
METAR KRRS 160335Z 29011KT 05/M12 A3016 RMK A01 SLP210 T00531129 RH 25%=
METAR KSB1 160335Z 36000KT 07/M16 A3018 RMK A01 SLP176 T00751167 RH 15%=
METAR KSC1 160335Z 22002KT 00/M08 A3020 RMK A01 SLP231 T00011084 RH 52%=
METAR KSDS 160335Z 26007KT M02/M06 A3018 RMK A01 SLP213 T10231067 RH 72%=
METAR KSE1 160335Z 30008KT 05/M08 A3012 RMK A01 SLP206 T00521084 RH 36%=
METAR KSE2 160335Z 28005KT 04/M10 A3020 RMK A01 SLP226 T00471101 RH 33%=
METAR KSGV 160335Z 27005KT M00/M04 A3018 RMK A01 SLP219 T10071043 RH 76%=
METAR KSLS 160335Z 25008KT 01/M04 A3017 RMK A01 SLP214 T00101049 RH 64%=
METAR KSM1 160335Z 25005KT 01/M05 A3019 RMK A01 SLP218 T00111056 RH 60%=
METAR KSM2 160335Z 27008KT 00/M06 A3018 RMK A01 SLP215 T00001065 RH 61%=
METAR KSP1 160335Z 35003KT 00/M05 A3015 RMK A01 SLP216 T00051058 RH 61%=
METAR KSP2 160335Z 29005KT M02/M11 A3017 RMK A01 SLP217 T10211112 RH 49%=
METAR KST1 160335Z 26003KT 00/M09 A3019 RMK A01 SLP226 T00071090 RH 48%=
METAR KST2 160335Z 28008KT 03/M07 A3016 RMK A01 SLP218 T00301077 RH 44%=
METAR KST3 160335Z 29009KT M03/M17 A3015 RMK A01 SLP210 T10301170 RH 33%=
METAR KST4 160335Z 26008KT M05/M14 A3015 RMK A01 SLP205 T10511148 RH 46%=
METAR KSVS 160335Z 28007KT M00/M12 A3015 RMK A01 SLP210 T10091129 RH 39%=
METAR KSW1 160335Z 24006KT 00/M07 A3017 RMK A01 SLP221 T00081070 RH 55%=
METAR KSYS 160335Z 29007KT 01/M06 A3016 RMK A01 SLP214 T00171062 RH 55%=
METAR KTA1 160335Z 27004KT 01/M06 A3020 RMK A01 SLP228 T00101068 RH 55%=
METAR KTAS 160335Z 27008KT 00/M05 A3017 RMK A01 SLP217 T00001050 RH 68%=
METAR KTAT 160335Z 20005KT M02/M05 A3020 RMK A01 SLP217 T10271051 RH 83%=
METAR KTH1 160335Z 29009KT 07/M09 A3012 RMK A01 SLP205 T00731096 RH 28%=
METAR KTIS 160335Z 32008KT M03/M11 A3017 RMK A01 SLP217 T10351116 RH 53%=
METAR KTR1 160335Z 32008KT 06/M11 A3013 RMK A01 SLP208 T00641117 RH 26%=
METAR KTUR 160335Z 28009KT 04/M15 A3015 RMK A01 SLP207 T00491158 RH 20%=
METAR KUM1 160335Z 33005KT M03/M12 A3017 RMK A01 SLP213 T10321126 RH 48%=
METAR KVA1 160335Z 21006KT 04/M09 A3017 RMK A01 SLP192 T00461094 RH 35%=
METAR KVE1 160335Z 29004KT M04/M12 A3017 RMK A01 SLP209 T10461127 RH 52%=
METAR KVP1 160335Z 30007KT M02/M12 A3017 RMK A01 SLP217 T10261121 RH 47%=
METAR KWA1 160335Z 24010KT 00/M06 A3019 RMK A01 SLP231 T00041065 RH 59%=
METAR KWE1 160335Z 28007KT 04/M08 A3015 RMK A01 SLP214 T00481089 RH 36%=
METAR KWE2 160335Z 27009KT 00/M04 A3019 RMK A01 SLP223 T00001041 RH 73%=
METAR KWOS 160335Z 28008KT 00/M04 A3018 RMK A01 SLP215 T00071049 RH 65%=
METAR KWT1 160335Z 28009KT 01/M06 A3017 RMK A01 SLP219 T00191063 RH 54%=
METAR KWVS 160335Z 30012KT 03/M07 A3015 RMK A01 SLP208 T00351073 RH 44%=

$$



USA.gov is the U.S. government's official web portal to all federal, state and local government web resources and services.